Time;durP1;ratioP1;P1;durP2;ratioP2;P2;SDS_P1;SDS_P2;PMS_P1;PMS_P2;Temp;Humidity;BMP_temperature;BMP_pressure;BME280_temperature;BME280_humidity;BME280_pressure;Samples;Min_cycle;Max_cycle;Signal;HPM_P1;HPM_P2
2022/07/14 00:02:24;;;;;;;8.73;2.10;;;19.30;99.90;;;;;;5036414;28;20199;-76
2022/07/14 00:04:50;;;;;;;12.43;2.13;;;19.20;99.90;;;;;;5054449;28;20258;-77
2022/07/14 00:07:15;;;;;;;9.13;1.70;;;19.10;82.30;;;;;;5054822;28;20191;-77
2022/07/14 00:09:41;;;;;;;9.77;2.00;;;19.10;98.10;;;;;;5054468;28;20172;-77
2022/07/14 00:12:06;;;;;;;8.17;2.13;;;19.10;99.90;;;;;;5035656;28;20548;-77
2022/07/14 00:14:32;;;;;;;7.57;2.00;;;19.10;99.90;;;;;;5053464;28;20688;-77
2022/07/14 00:16:58;;;;;;;7.93;1.83;;;19.10;99.70;;;;;;5035379;28;20627;-77
2022/07/14 00:19:23;;;;;;;11.67;2.07;;;19.00;99.90;;;;;;5053361;28;20166;-77
2022/07/14 00:21:49;;;;;;;3.30;1.90;;;19.00;99.90;;;;;;5053357;28;20650;-76
2022/07/14 00:24:14;;;;;;;8.97;2.30;;;19.00;99.90;;;;;;5053346;28;20669;-77
2022/07/14 00:26:40;;;;;;;6.90;1.97;;;18.90;99.90;;;;;;5053270;28;20576;-76
2022/07/14 00:29:07;;;;;;;9.17;2.07;;;18.90;99.90;;;;;;5053295;28;20182;-76
2022/07/14 00:31:33;;;;;;;9.97;2.27;;;18.90;99.90;;;;;;5053032;28;20258;-76
2022/07/14 00:33:59;;;;;;;6.67;2.00;;;18.80;99.90;;;;;;5052981;28;20719;-76
2022/07/14 00:36:26;;;;;;;10.67;2.47;;;18.80;99.90;;;;;;5052858;28;20538;-76
2022/07/14 00:38:52;;;;;;;11.03;2.30;;;18.80;99.90;;;;;;5053177;28;20167;-77
2022/07/14 00:41:18;;;;;;;8.63;2.47;;;18.80;99.90;;;;;;5035125;28;20595;-76
2022/07/14 00:43:44;;;;;;;10.17;2.40;;;18.70;99.90;;;;;;5053179;28;20247;-75
2022/07/14 00:46:09;;;;;;;10.57;2.93;;;18.70;99.90;;;;;;5052903;28;20179;-76
2022/07/14 00:48:35;;;;;;;8.73;2.30;;;18.70;99.90;;;;;;5052764;28;20195;-76
2022/07/14 00:51:00;;;;;;;6.37;2.07;;;18.70;99.90;;;;;;5052856;28;20179;-76
2022/07/14 00:53:26;;;;;;;4.40;1.73;;;18.60;99.90;;;;;;5052874;28;20255;-77
2022/07/14 00:55:51;;;;;;;8.00;2.43;;;18.60;99.90;;;;;;5052082;28;20546;-76
2022/07/14 00:58:18;;;;;;;8.80;2.00;;;18.50;99.90;;;;;;5052689;28;20192;-77
2022/07/14 01:00:44;;;;;;;8.73;1.97;;;18.60;99.90;;;;;;5034852;28;20184;-75
2022/07/14 01:03:10;;;;;;;7.57;2.00;;;18.50;99.90;;;;;;5052646;28;20225;-76
2022/07/14 01:05:36;;;;;;;8.63;2.03;;;18.50;99.90;;;;;;5052653;28;20203;-76
2022/07/14 01:08:02;;;;;;;10.93;2.07;;;18.40;99.90;;;;;;5052676;28;20611;-76
2022/07/14 01:10:28;;;;;;;6.97;2.13;;;18.40;99.90;;;;;;5052614;28;20191;-76
2022/07/14 01:13:00;;;;;;;12.53;2.93;;;18.30;99.90;;;;;;5052527;28;20172;-76
2022/07/14 01:15:26;;;;;;;7.10;1.83;;;18.30;99.90;;;;;;5034719;28;20195;-76
2022/07/14 01:17:52;;;;;;;9.17;2.47;;;18.30;99.90;;;;;;5034496;28;20213;-77
2022/07/14 01:20:19;;;;;;;10.53;2.60;;;18.30;99.90;;;;;;5052896;28;20191;-76
2022/07/14 01:22:49;;;;;;;8.20;2.13;;;18.40;99.90;;;;;;5052627;28;20172;-77
2022/07/14 01:25:16;;;;;;;6.83;2.37;;;18.20;99.90;;;;;;5052479;28;20171;-76
2022/07/14 01:27:42;;;;;;;7.93;2.00;;;18.20;99.90;;;;;;5034576;28;20230;-76
2022/07/14 01:30:09;;;;;;;7.90;1.77;;;18.20;99.90;;;;;;5052411;28;20172;-76
2022/07/14 01:32:34;;;;;;;7.37;2.63;;;18.10;99.90;;;;;;5052322;28;20263;-77
2022/07/14 01:35:00;;;;;;;7.47;1.80;;;18.10;99.90;;;;;;5052311;28;20222;-76
2022/07/14 01:37:27;;;;;;;9.63;2.50;;;18.10;99.90;;;;;;5034447;28;20246;-77
2022/07/14 01:39:53;;;;;;;3.70;1.33;;;18.10;99.90;;;;;;5052392;28;20164;-76
2022/07/14 01:42:19;;;;;;;7.63;2.40;;;18.10;99.90;;;;;;5034504;28;20591;-76
2022/07/14 01:44:44;;;;;;;7.23;2.30;;;18.10;99.90;;;;;;5052300;28;20198;-76
2022/07/14 01:47:10;;;;;;;8.47;2.20;;;18.10;99.90;;;;;;5052205;28;20196;-76
2022/07/14 01:49:36;;;;;;;5.50;2.17;;;18.10;99.90;;;;;;5052271;28;20203;-77
2022/07/14 01:52:02;;;;;;;6.07;1.87;;;18.10;99.90;;;;;;5052196;28;20668;-77
2022/07/14 01:54:28;;;;;;;7.13;2.40;;;18.00;99.90;;;;;;5052144;28;20176;-77
2022/07/14 01:56:53;;;;;;;9.63;2.60;;;18.00;99.90;;;;;;5034303;28;20200;-76
2022/07/14 01:59:19;;;;;;;10.53;2.47;;;18.00;99.90;;;;;;5052432;28;20214;-77
2022/07/14 02:01:46;;;;;;;10.53;2.63;;;18.00;99.90;;;;;;5052410;28;20266;-76
2022/07/14 02:04:14;;;;;;;8.80;2.50;;;18.00;99.90;;;;;;5052435;28;20167;-76
2022/07/14 02:06:42;;;;;;;8.17;2.20;;;17.90;99.90;;;;;;5052962;28;20180;-76
2022/07/14 02:09:07;;;;;;;6.47;2.23;;;17.90;99.90;;;;;;5055910;28;20174;-77
2022/07/14 02:14:17;;;;;;;7.03;2.00;;;17.90;99.90;;;;;;5055997;28;20210;-76
2022/07/14 02:16:43;;;;;;;5.20;2.10;;;17.90;99.90;;;;;;5038169;28;20636;-75
2022/07/14 02:19:09;;;;;;;5.60;1.93;;;17.80;99.90;;;;;;5137538;22;20248;-77
2022/07/14 02:21:34;;;;;;;7.40;2.23;;;17.60;99.90;;;;;;5034423;28;20179;-77
2022/07/14 02:24:00;;;;;;;7.60;2.60;;;17.70;99.90;;;;;;5035552;28;20243;-76
2022/07/14 02:26:26;;;;;;;7.50;2.27;;;17.70;99.90;;;;;;5035813;28;20208;-76
2022/07/14 02:28:53;;;;;;;8.60;2.07;;;17.70;99.90;;;;;;5035523;28;20196;-76
2022/07/14 02:31:19;;;;;;;7.80;2.27;;;17.70;99.90;;;;;;5035490;28;20177;-76
2022/07/14 02:33:46;;;;;;;9.33;2.30;;;17.70;99.90;;;;;;5017604;28;20184;-76
2022/07/14 02:36:12;;;;;;;10.20;2.57;;;17.60;99.90;;;;;;5017583;28;20631;-76
2022/07/14 02:38:37;;;;;;;7.07;2.10;;;17.60;99.90;;;;;;5035177;28;20191;-76
2022/07/14 02:41:04;;;;;;;9.57;2.30;;;17.60;99.90;;;;;;5035375;28;20169;-76
2022/07/14 02:43:31;;;;;;;9.37;2.40;;;17.70;99.90;;;;;;5017426;28;20209;-76
2022/07/14 02:45:57;;;;;;;10.27;2.10;;;17.60;99.90;;;;;;5035218;28;20165;-76
2022/07/14 02:48:23;;;;;;;13.33;2.70;;;17.60;99.90;;;;;;5035119;28;20196;-77
2022/07/14 02:50:49;;;;;;;11.30;2.27;;;17.70;99.90;;;;;;5035383;28;20274;-76
2022/07/14 02:53:14;;;;;;;9.73;2.70;;;17.60;99.90;;;;;;5035103;28;20230;-76
2022/07/14 02:55:40;;;;;;;11.07;2.90;;;17.60;99.90;;;;;;5034964;28;20223;-76
2022/07/14 02:58:05;;;;;;;10.20;2.80;;;17.60;99.90;;;;;;5035008;28;20197;-76
2022/07/14 03:00:31;;;;;;;7.27;2.50;;;17.60;99.90;;;;;;5034986;28;20191;-76
2022/07/14 03:02:58;;;;;;;10.67;2.73;;;17.60;99.90;;;;;;5034810;28;20215;-76
2022/07/14 03:05:24;;;;;;;12.83;2.60;;;17.60;99.90;;;;;;5034737;28;20222;-76
2022/07/14 03:07:49;;;;;;;10.43;2.40;;;17.60;99.90;;;;;;5034815;28;20591;-76
2022/07/14 03:10:15;;;;;;;8.13;2.20;;;17.60;99.90;;;;;;5016883;28;20176;-76
2022/07/14 03:12:41;;;;;;;8.63;2.30;;;17.60;99.90;;;;;;5034876;28;20183;-76
2022/07/14 03:15:09;;;;;;;12.63;2.63;;;17.60;99.90;;;;;;5016790;28;20685;-76
2022/07/14 03:17:35;;;;;;;7.70;2.57;;;17.50;99.90;;;;;;5034213;28;20184;-76
2022/07/14 03:20:00;;;;;;;11.67;2.70;;;17.50;99.90;;;;;;5033934;28;20188;-76
2022/07/14 03:22:27;;;;;;;11.87;2.87;;;17.50;99.90;;;;;;5016628;28;20183;-76
2022/07/14 03:24:53;;;;;;;8.40;2.50;;;17.50;99.90;;;;;;5034393;28;20176;-76
2022/07/14 03:27:18;;;;;;;9.67;2.53;;;17.50;99.90;;;;;;5016584;28;20207;-76
2022/07/14 03:29:44;;;;;;;14.43;2.63;;;17.50;99.90;;;;;;5034246;28;20183;-76
2022/07/14 03:32:10;;;;;;;9.60;3.07;;;17.50;99.90;;;;;;5034346;28;20172;-76
2022/07/14 03:34:35;;;;;;;11.70;2.50;;;17.50;99.90;;;;;;5034123;28;20251;-76
2022/07/14 03:37:01;;;;;;;7.63;2.30;;;17.50;99.90;;;;;;5034094;28;20247;-76
2022/07/14 03:39:26;;;;;;;9.30;2.30;;;17.40;99.90;;;;;;5034131;28;20219;-76
2022/07/14 03:41:52;;;;;;;9.77;2.30;;;17.40;99.90;;;;;;5034280;28;20179;-76
2022/07/14 03:44:18;;;;;;;7.77;2.13;;;17.30;99.90;;;;;;5033998;28;20172;-76
2022/07/14 03:46:43;;;;;;;8.23;2.37;;;17.30;99.90;;;;;;5016602;28;20214;-75
2022/07/14 03:49:09;;;;;;;9.30;2.77;;;17.30;99.90;;;;;;5016153;28;20569;-76
2022/07/14 03:51:39;;;;;;;9.67;2.40;;;17.40;99.90;;;;;;5033834;28;20179;-76
2022/07/14 03:54:05;;;;;;;14.37;2.53;;;17.70;99.90;;;;;;5016093;28;20630;-76
2022/07/14 03:56:31;;;;;;;8.93;2.60;;;17.30;99.90;;;;;;5033706;28;20283;-76
2022/07/14 03:58:57;;;;;;;4.77;1.90;;;17.30;99.90;;;;;;5033704;28;20184;-75
2022/07/14 04:01:22;;;;;;;6.87;2.60;;;17.30;99.90;;;;;;5033666;28;20717;-76
2022/07/14 04:03:48;;;;;;;9.50;1.93;;;17.30;99.90;;;;;;5033616;28;20165;-76
2022/07/14 04:06:13;;;;;;;7.67;1.90;;;17.30;99.90;;;;;;5033594;28;20230;-75
2022/07/14 04:08:40;;;;;;;10.30;2.50;;;17.20;99.90;;;;;;5033467;28;20188;-76
2022/07/14 04:11:05;;;;;;;14.63;2.90;;;17.20;99.90;;;;;;5033508;28;20654;-76
2022/07/14 04:13:32;;;;;;;12.47;2.40;;;17.10;99.90;;;;;;5015731;28;20184;-75
2022/07/14 04:15:58;;;;;;;9.47;2.63;;;17.10;99.90;;;;;;5015636;28;20261;-76
2022/07/14 04:18:23;;;;;;;9.60;2.80;;;17.10;99.90;;;;;;5033561;28;20271;-76
2022/07/14 04:20:50;;;;;;;8.63;2.57;;;17.20;99.90;;;;;;5033340;28;20267;-76
2022/07/14 04:23:16;;;;;;;10.33;2.90;;;17.10;99.90;;;;;;5033304;28;20222;-76
2022/07/14 04:25:41;;;;;;;14.47;2.63;;;17.10;99.90;;;;;;5033290;28;20176;-75
2022/07/14 04:28:07;;;;;;;10.87;2.80;;;17.00;99.90;;;;;;5033194;28;20192;-76
2022/07/14 04:30:32;;;;;;;12.67;3.20;;;17.10;99.90;;;;;;5033141;28;20180;-76
2022/07/14 04:32:58;;;;;;;16.43;3.00;;;17.10;99.90;;;;;;5015390;28;20650;-76
2022/07/14 04:35:24;;;;;;;10.00;2.80;;;17.10;99.90;;;;;;5033081;28;20203;-76
2022/07/14 04:37:49;;;;;;;10.50;2.80;;;17.10;99.90;;;;;;5015420;28;20196;-76
2022/07/14 04:40:15;;;;;;;9.13;3.03;;;17.10;99.90;;;;;;5033092;28;20168;-76
2022/07/14 04:42:40;;;;;;;10.77;2.93;;;17.20;99.90;;;;;;5033344;28;20172;-76
2022/07/14 04:45:07;;;;;;;12.83;3.30;;;17.20;99.90;;;;;;5015250;28;20191;-76
2022/07/14 04:47:32;;;;;;;12.33;3.20;;;17.20;99.90;;;;;;5015276;28;20203;-75
2022/07/14 04:52:49;;;;;;;12.87;2.40;;;17.10;99.90;;;;;;5033557;28;20207;-76
2022/07/14 04:55:15;;;;;;;12.50;2.70;;;17.10;99.90;;;;;;5032778;28;20246;-76
2022/07/14 04:57:42;;;;;;;9.87;2.87;;;16.90;99.90;;;;;;5032854;28;20184;-76
2022/07/14 05:00:09;;;;;;;10.13;2.60;;;17.00;99.90;;;;;;5032986;28;20271;-76
2022/07/14 05:02:35;;;;;;;10.47;2.83;;;17.00;99.90;;;;;;5032893;28;20164;-76
2022/07/14 05:05:01;;;;;;;10.77;2.63;;;17.00;99.90;;;;;;5015206;28;20187;-76
2022/07/14 05:07:26;;;;;;;13.47;2.63;;;17.00;99.90;;;;;;5015039;28;20202;-76
2022/07/14 05:09:52;;;;;;;19.30;4.00;;;17.00;99.90;;;;;;5015097;28;20542;-76
2022/07/14 05:12:18;;;;;;;18.30;3.13;;;17.00;99.90;;;;;;5033270;28;20211;-76
2022/07/14 05:14:44;;;;;;;11.50;3.03;;;16.90;99.90;;;;;;5032643;28;20255;-75
2022/07/14 05:17:11;;;;;;;10.57;2.67;;;16.80;99.90;;;;;;5014943;28;20741;-76
2022/07/14 05:19:37;;;;;;;12.73;3.07;;;16.90;99.90;;;;;;5032703;28;20569;-77
2022/07/14 05:22:02;;;;;;;12.83;3.30;;;16.90;99.90;;;;;;5032989;28;20148;-76
2022/07/14 05:24:28;;;;;;;15.53;3.10;;;16.90;99.90;;;;;;5032583;28;20176;-76
2022/07/14 05:26:53;;;;;;;13.57;3.23;;;16.90;99.90;;;;;;5032792;28;20255;-76
2022/07/14 05:29:19;;;;;;;11.83;3.30;;;16.90;99.90;;;;;;5032837;28;20184;-76
2022/07/14 05:31:44;;;;;;;11.23;3.57;;;16.40;99.90;;;;;;5033124;28;20579;-76
2022/07/14 05:34:10;;;;;;;12.60;3.57;;;16.90;99.90;;;;;;5032791;28;20218;-76
2022/07/14 05:36:36;;;;;;;10.70;3.00;;;16.90;99.90;;;;;;5032550;28;20203;-76
2022/07/14 05:39:02;;;;;;;12.33;3.13;;;16.90;99.90;;;;;;5032494;28;20224;-76
2022/07/14 05:41:28;;;;;;;10.13;3.03;;;16.90;99.90;;;;;;5033132;28;20164;-76
2022/07/14 05:43:53;;;;;;;15.80;3.27;;;16.90;99.90;;;;;;5018523;28;20168;-76
2022/07/14 05:46:19;;;;;;;16.50;3.40;;;16.90;99.90;;;;;;5036285;28;20773;-75
2022/07/14 05:48:45;;;;;;;10.03;3.60;;;16.90;99.90;;;;;;5036435;28;20192;-75
2022/07/14 05:51:15;;;;;;;14.77;3.57;;;16.90;99.90;;;;;;5036409;28;20251;-76
2022/07/14 05:53:43;;;;;;;20.00;3.47;;;16.90;99.90;;;;;;5018403;28;20183;-76
2022/07/14 05:56:10;;;;;;;10.60;3.10;;;17.00;99.90;;;;;;5018219;28;20204;-75
2022/07/14 05:58:36;;;;;;;15.67;3.47;;;17.00;99.90;;;;;;5035961;28;20181;-75
2022/07/14 06:01:03;;;;;;;14.13;3.30;;;17.00;99.90;;;;;;5036027;28;20717;-76
2022/07/14 06:03:29;;;;;;;12.73;3.30;;;17.10;99.90;;;;;;5036223;28;20196;-76
2022/07/14 06:05:55;;;;;;;15.03;3.27;;;17.00;99.90;;;;;;5018115;28;20721;-76
2022/07/14 06:08:20;;;;;;;11.67;3.00;;;17.00;99.90;;;;;;5036246;28;20698;-76
2022/07/14 06:10:46;;;;;;;13.37;3.47;;;17.20;99.90;;;;;;5036076;28;20183;-76
2022/07/14 06:13:11;;;;;;;7.50;2.60;;;17.20;99.90;;;;;;5035733;28;20173;-76
2022/07/14 06:15:37;;;;;;;15.60;2.83;;;17.20;99.90;;;;;;5035713;28;20258;-76
2022/07/14 06:18:02;;;;;;;12.73;2.90;;;17.20;99.90;;;;;;5035882;28;20192;-74
2022/07/14 06:20:28;;;;;;;13.60;2.67;;;17.20;99.90;;;;;;5035957;28;20185;-76
2022/07/14 06:22:54;;;;;;;16.00;3.50;;;17.20;99.90;;;;;;5017774;28;20183;-76
2022/07/14 06:25:20;;;;;;;11.13;2.60;;;17.20;99.90;;;;;;5035711;28;20256;-76
2022/07/14 06:27:45;;;;;;;12.50;3.17;;;17.20;99.90;;;;;;5035471;28;20573;-75
2022/07/14 06:30:11;;;;;;;8.93;2.50;;;17.40;99.90;;;;;;5017814;28;20255;-75
2022/07/14 06:32:40;;;;;;;11.03;2.87;;;17.30;99.90;;;;;;5017660;28;20188;-75
2022/07/14 06:35:08;;;;;;;13.37;2.97;;;17.40;99.90;;;;;;5035813;28;20593;-75
2022/07/14 06:37:36;;;;;;;11.40;2.73;;;17.50;99.90;;;;;;5017495;28;20204;-76
2022/07/14 06:40:05;;;;;;;9.00;2.70;;;17.60;99.90;;;;;;5017512;28;20169;-76
2022/07/14 06:42:32;;;;;;;16.63;2.50;;;17.60;99.90;;;;;;5035213;28;20168;-76
2022/07/14 06:44:58;;;;;;;8.70;2.40;;;17.70;99.90;;;;;;5035157;28;20631;-75
2022/07/14 06:47:23;;;;;;;17.67;2.77;;;17.80;99.90;;;;;;5035073;28;20208;-75
2022/07/14 06:49:49;;;;;;;10.23;3.07;;;17.80;99.90;;;;;;5017323;28;20183;-75
2022/07/14 06:52:14;;;;;;;11.50;2.53;;;17.80;99.90;;;;;;5017138;28;20195;-76
2022/07/14 06:54:40;;;;;;;12.80;2.97;;;17.90;99.90;;;;;;5033973;28;20200;-75
2022/07/14 06:57:05;;;;;;;11.03;3.00;;;17.90;99.90;;;;;;5017185;28;20164;-76
2022/07/14 06:59:31;;;;;;;10.67;3.13;;;18.00;99.90;;;;;;5035363;28;20176;-76
2022/07/14 07:01:57;;;;;;;14.30;2.93;;;18.10;99.90;;;;;;5034816;28;20172;-75
2022/07/14 07:04:23;;;;;;;10.90;2.63;;;18.10;99.90;;;;;;5035321;28;20212;-76
2022/07/14 07:06:50;;;;;;;13.00;2.67;;;18.00;99.90;;;;;;5034856;28;20183;-75
2022/07/14 07:09:18;;;;;;;14.93;2.80;;;18.20;99.90;;;;;;5034738;28;20168;-76
2022/07/14 07:11:44;;;;;;;9.80;2.27;;;18.20;99.90;;;;;;5034957;28;20176;-76
2022/07/14 07:14:11;;;;;;;12.53;3.37;;;18.20;99.90;;;;;;5034625;28;20172;-76
2022/07/14 07:16:36;;;;;;;12.37;2.53;;;18.30;99.90;;;;;;5034437;28;20670;-75
2022/07/14 07:19:03;;;;;;;10.43;2.50;;;18.30;99.90;;;;;;5034287;28;20193;-76
2022/07/14 07:21:29;;;;;;;12.13;2.37;;;18.30;99.90;;;;;;5016778;28;20191;-76
2022/07/14 07:23:55;;;;;;;12.40;3.40;;;18.40;99.90;;;;;;5034397;28;20176;-76
2022/07/14 07:26:24;;;;;;;11.03;2.53;;;18.40;99.90;;;;;;5034468;28;20163;-76
2022/07/14 07:28:52;;;;;;;12.67;3.13;;;18.40;96.10;;;;;;5034347;28;20192;-75
2022/07/14 07:31:17;;;;;;;12.43;3.17;;;18.40;81.40;;;;;;5016475;28;20238;-76
2022/07/14 07:33:43;;;;;;;12.47;2.83;;;18.40;95.80;;;;;;5016425;28;20180;-76
2022/07/14 07:36:08;;;;;;;13.77;2.93;;;18.40;99.90;;;;;;5016437;28;20200;-75
2022/07/14 07:38:34;;;;;;;13.47;3.00;;;18.40;51.80;;;;;;5016421;28;20196;-75
2022/07/14 07:41:02;;;;;;;13.20;2.73;;;18.40;81.80;;;;;;5016295;28;20188;-76
2022/07/14 07:43:28;;;;;;;18.57;2.87;;;18.40;68.20;;;;;;5034358;28;20243;-76
2022/07/14 07:45:53;;;;;;;12.27;2.87;;;18.40;66.60;;;;;;5034047;28;20184;-75
2022/07/14 07:48:20;;;;;;;16.50;2.67;;;18.40;59.40;;;;;;5034075;28;20224;-76
2022/07/14 07:50:45;;;;;;;11.20;2.90;;;18.40;27.70;;;;;;5016113;28;20266;-75
2022/07/14 07:53:12;;;;;;;8.40;2.23;;;18.40;39.50;;;;;;5033156;28;20657;-76
2022/07/14 07:55:38;;;;;;;9.80;2.70;;;18.40;81.20;;;;;;5033353;28;20338;-76
2022/07/14 07:58:05;;;;;;;8.30;2.30;;;18.50;73.70;;;;;;5034086;28;20250;-76
2022/07/14 08:00:31;;;;;;;10.07;2.43;;;18.60;74.00;;;;;;5016132;28;20560;-76
2022/07/14 08:02:57;;;;;;;8.93;2.30;;;18.70;70.50;;;;;;5033991;28;20203;-75
2022/07/14 08:05:25;;;;;;;12.83;2.83;;;18.80;66.80;;;;;;5015596;28;20690;-76
2022/07/14 08:07:52;;;;;;;10.53;2.30;;;18.80;1.00;;;;;;5034029;28;20581;-76
2022/07/14 08:10:18;;;;;;;8.80;2.30;;;18.80;1.00;;;;;;5033530;28;20175;-76
2022/07/14 08:12:44;;;;;;;10.37;2.63;;;18.90;1.00;;;;;;5033464;28;20200;-76
2022/07/14 08:15:10;;;;;;;10.67;2.20;;;19.00;1.00;;;;;;5033522;28;20235;-76
2022/07/14 08:17:36;;;;;;;9.60;2.27;;;19.10;1.00;;;;;;5033673;28;20195;-76
2022/07/14 08:20:02;;;;;;;10.33;3.20;;;19.20;1.00;;;;;;5059187;22;20224;-77
2022/07/14 08:22:29;;;;;;;7.63;2.50;;;19.30;1.00;;;;;;5033804;28;20670;-77
2022/07/14 08:24:56;;;;;;;7.07;1.67;;;19.40;1.00;;;;;;5033806;28;20164;-77
2022/07/14 08:27:22;;;;;;;10.43;2.03;;;19.40;1.00;;;;;;5033504;28;20165;-77
2022/07/14 08:29:49;;;;;;;6.33;1.77;;;19.50;99.90;;;;;;5033557;28;20678;-77
2022/07/14 08:32:14;;;;;;;7.63;1.70;;;19.60;93.20;;;;;;5034048;28;20247;-77
2022/07/14 08:34:40;;;;;;;7.53;1.73;;;19.60;99.90;;;;;;5033531;28;20192;-76
2022/07/14 08:37:06;;;;;;;8.90;1.60;;;19.80;93.40;;;;;;5033738;28;20168;-77
2022/07/14 08:39:32;;;;;;;5.00;1.33;;;19.80;1.00;;;;;;5033859;28;20168;-77
2022/07/14 08:42:01;;;;;;;6.23;1.13;;;19.80;1.00;;;;;;5033733;28;20246;-77
2022/07/14 08:44:27;;;;;;;7.60;1.50;;;19.80;1.00;;;;;;5015742;28;20294;-77
2022/07/14 08:46:54;;;;;;;6.60;1.30;;;19.80;1.00;;;;;;5033841;28;20209;-77
2022/07/14 08:49:21;;;;;;;7.67;1.40;;;19.80;99.90;;;;;;5015533;28;20233;-77
2022/07/14 08:51:49;;;;;;;6.13;1.30;;;19.80;46.00;;;;;;5015601;28;20184;-77
2022/07/14 08:54:15;;;;;;;6.03;1.37;;;19.90;99.90;;;;;;5033308;28;20218;-77
2022/07/14 08:56:42;;;;;;;9.07;1.67;;;20.00;99.90;;;;;;5016088;28;20196;-78
2022/07/14 08:59:08;;;;;;;6.87;1.77;;;20.00;1.00;;;;;;5015651;28;20170;-77
2022/07/14 09:01:34;;;;;;;3.73;1.40;;;20.10;1.00;;;;;;5033537;28;20188;-77
2022/07/14 09:03:59;;;;;;;4.40;1.40;;;20.20;99.90;;;;;;5033213;28;20230;-76
2022/07/14 09:06:44;;;;;;;4.27;1.43;;;20.30;1.00;;;;;;5015801;28;20705;-77
2022/07/14 09:09:09;;;;;;;6.97;1.10;;;20.40;99.90;;;;;;5033172;28;20172;-77
2022/07/14 09:11:35;;;;;;;7.30;1.47;;;20.40;99.90;;;;;;5015152;28;20225;-77
2022/07/14 09:14:10;;;;;;;5.10;1.60;;;20.50;1.00;;;;;;5033257;28;20168;-77
2022/07/14 09:16:36;;;;;;;3.53;1.27;;;20.60;99.90;;;;;;5016240;28;20195;-77
2022/07/14 09:19:11;;;;;;;2.67;0.80;;;20.60;1.00;;;;;;5019508;28;20179;-77
2022/07/14 09:21:44;;;;;;;6.30;1.27;;;20.70;99.90;;;;;;5036974;28;20234;-77
2022/07/14 09:24:11;;;;;;;6.20;1.50;;;20.80;1.00;;;;;;5037511;28;20180;-77
2022/07/14 09:26:48;;;;;;;7.07;1.87;;;20.90;1.00;;;;;;5037178;28;20544;-77
2022/07/14 09:29:25;;;;;;;4.33;1.20;;;20.90;1.00;;;;;;5037627;28;20741;-78
2022/07/14 09:31:50;;;;;;;4.67;1.30;;;20.90;1.00;;;;;;5019784;28;20200;-78
2022/07/14 09:34:34;;;;;;;5.70;1.60;;;21.00;1.00;;;;;;5037771;28;20219;-78
2022/07/14 09:37:29;;;;;;;4.30;1.47;;;20.90;99.90;;;;;;5041719;28;20184;-77
2022/07/14 09:39:56;;;;;;;5.73;1.50;;;21.00;99.90;;;;;;5002688;28;20251;-77
2022/07/14 09:42:51;;;;;;;4.60;1.87;;;20.90;99.90;;;;;;5037078;28;20161;-78
2022/07/14 09:45:19;;;;;;;6.23;2.30;;;20.90;99.90;;;;;;5036740;28;20164;-78
2022/07/14 09:47:53;;;;;;;6.47;1.50;;;21.10;1.00;;;;;;5018776;28;20187;-78
2022/07/14 09:50:44;;;;;;;3.83;1.50;;;21.30;1.00;;;;;;5037260;28;20211;-78
2022/07/14 09:53:32;;;;;;;6.93;2.30;;;21.40;1.00;;;;;;5019262;28;20639;-78
2022/07/14 09:56:08;;;;;;;6.30;2.03;;;21.40;1.00;;;;;;5019123;28;20192;-78
2022/07/14 09:58:44;;;;;;;7.07;1.73;;;21.50;99.90;;;;;;5018994;28;20165;-78
2022/07/14 10:01:14;;;;;;;7.37;1.57;;;21.60;99.90;;;;;;5036845;28;20180;-79
2022/07/14 10:03:41;;;;;;;4.83;1.60;;;21.60;99.90;;;;;;5036600;28;20246;-77
2022/07/14 10:06:08;;;;;;;6.73;1.80;;;21.80;99.90;;;;;;5036083;28;20254;-78
2022/07/14 10:08:35;;;;;;;7.87;1.53;;;21.90;1.00;;;;;;5036647;28;20337;-77
2022/07/14 10:11:03;;;;;;;2.73;1.20;;;21.90;71.90;;;;;;5018732;28;20219;-78
2022/07/14 10:13:30;;;;;;;6.40;1.43;;;21.90;99.90;;;;;;5036072;28;20184;-77
2022/07/14 10:15:56;;;;;;;5.70;1.30;;;22.00;1.00;;;;;;5035912;28;20219;-78
2022/07/14 10:18:23;;;;;;;3.70;1.27;;;22.10;1.00;;;;;;5018509;28;20669;-77
2022/07/14 10:20:51;;;;;;;7.10;2.00;;;22.00;1.00;;;;;;5035942;28;20208;-77
2022/07/14 10:23:18;;;;;;;8.60;1.60;;;22.10;1.00;;;;;;5036134;28;20175;-78
2022/07/14 10:25:49;;;;;;;6.67;1.83;;;22.20;1.00;;;;;;5035752;28;20180;-76
2022/07/14 10:28:16;;;;;;;5.57;1.63;;;22.20;1.00;;;;;;5017903;28;20172;-77
2022/07/14 10:30:52;;;;;;;2.97;1.00;;;22.30;1.00;;;;;;5035825;28;20728;-77
2022/07/14 10:33:34;;;;;;;4.77;1.30;;;22.40;1.00;;;;;;5017971;28;20547;-78
2022/07/14 10:36:03;;;;;;;7.30;1.50;;;22.50;1.00;;;;;;5017828;28;20196;-77
2022/07/14 10:38:44;;;;;;;4.87;0.90;;;22.50;1.00;;;;;;5035578;28;20169;-78
2022/07/14 10:41:41;;;;;;;5.67;1.50;;;22.50;1.00;;;;;;5035501;28;20195;-77
2022/07/14 10:44:21;;;;;;;3.47;1.43;;;22.60;1.00;;;;;;5035414;28;20160;-77
2022/07/14 10:46:49;;;;;;;4.03;1.40;;;22.60;1.00;;;;;;5035968;28;20172;-77
2022/07/14 10:49:16;;;;;;;6.80;1.40;;;22.80;1.00;;;;;;5017546;28;20557;-78
2022/07/14 10:51:51;;;;;;;4.90;1.63;;;22.70;1.00;;;;;;5035820;28;20196;-78
2022/07/14 10:54:24;;;;;;;5.00;1.57;;;22.70;1.00;;;;;;5017551;28;20160;-78
2022/07/14 10:56:50;;;;;;;4.00;1.23;;;22.90;1.00;;;;;;5017714;28;20199;-78
2022/07/14 10:59:25;;;;;;;4.00;1.20;;;22.90;1.00;;;;;;5017405;28;20172;-78
2022/07/14 11:02:14;;;;;;;5.63;1.50;;;22.90;99.90;;;;;;5035362;28;20638;-78
2022/07/14 11:04:58;;;;;;;6.27;1.60;;;22.90;1.00;;;;;;5017392;28;20703;-78
2022/07/14 11:07:43;;;;;;;4.10;1.20;;;23.00;99.90;;;;;;5017088;28;20172;-77
2022/07/14 11:10:14;;;;;;;6.13;1.50;;;23.10;1.00;;;;;;5034835;28;20188;-77
2022/07/14 11:13:04;;;;;;;3.40;1.40;;;23.10;99.90;;;;;;5035038;28;20172;-77
2022/07/14 11:15:55;;;;;;;3.43;1.10;;;23.20;1.00;;;;;;5017044;28;20203;-78
2022/07/14 11:18:21;;;;;;;4.33;1.00;;;23.20;99.90;;;;;;5017327;28;20167;-78
2022/07/14 11:21:06;;;;;;;4.40;1.23;;;23.30;99.90;;;;;;5018486;28;20212;-78
2022/07/14 11:23:36;;;;;;;4.60;1.13;;;23.40;99.90;;;;;;5018286;28;20243;-77
2022/07/14 11:26:05;;;;;;;2.73;1.03;;;23.40;99.90;;;;;;5034745;28;20222;-77
2022/07/14 11:28:50;;;;;;;4.00;1.00;;;23.30;99.90;;;;;;5035244;28;20180;-77
2022/07/14 11:31:18;;;;;;;3.33;1.53;;;23.20;99.90;;;;;;5016644;28;20239;-77
2022/07/14 11:36:32;;;;;;;4.03;1.27;;;23.20;99.90;;;;;;5034433;28;20578;-77
2022/07/14 11:39:16;;;;;;;4.83;1.13;;;23.30;99.90;;;;;;5033822;28;20648;-77
2022/07/14 11:41:44;;;;;;;2.60;1.13;;;23.30;99.90;;;;;;5034486;28;20279;-77
2022/07/14 11:44:40;;;;;;;6.27;0.90;;;23.50;99.90;;;;;;5034123;28;20180;-77
2022/07/14 11:47:08;;;;;;;4.13;1.00;;;23.50;99.70;;;;;;5034096;28;20187;-76
2022/07/14 11:49:35;;;;;;;4.67;1.47;;;23.50;91.20;;;;;;5016372;28;20739;-78
2022/07/14 11:52:03;;;;;;;4.07;1.40;;;23.70;99.90;;;;;;5034135;28;20523;-77
2022/07/14 11:54:28;;;;;;;3.33;1.17;;;23.60;99.90;;;;;;5033871;28;20173;-77
2022/07/14 11:57:09;;;;;;;3.77;1.20;;;23.70;94.00;;;;;;5017060;28;20253;-79
2022/07/14 11:59:41;;;;;;;2.23;0.70;;;23.70;99.90;;;;;;5017060;28;20172;-79
2022/07/14 12:02:08;;;;;;;6.40;1.53;;;23.90;85.40;;;;;;5017542;28;20169;-78
2022/07/14 12:04:34;;;;;;;4.77;1.40;;;24.20;85.90;;;;;;5034844;28;20586;-79
2022/07/14 12:07:00;;;;;;;3.43;1.00;;;24.00;94.80;;;;;;5034754;28;20176;-79
2022/07/14 12:09:35;;;;;;;5.50;1.07;;;24.00;93.50;;;;;;5034625;28;20230;-79
2022/07/14 12:12:01;;;;;;;3.50;1.10;;;24.00;98.70;;;;;;5034697;28;20179;-78
2022/07/14 12:14:27;;;;;;;4.53;0.87;;;24.10;97.30;;;;;;5034608;28;20168;-78
2022/07/14 12:16:53;;;;;;;7.03;1.00;;;24.00;99.90;;;;;;5016885;28;20286;-78
2022/07/14 12:19:32;;;;;;;2.77;1.10;;;24.00;99.90;;;;;;5033969;28;20247;-78
2022/07/14 12:22:03;;;;;;;3.33;1.10;;;24.40;99.90;;;;;;5034603;28;20164;-79
2022/07/14 12:24:29;;;;;;;4.93;1.00;;;24.40;99.90;;;;;;5016507;28;20590;-78
2022/07/14 12:26:59;;;;;;;2.43;0.90;;;24.60;99.90;;;;;;5016403;28;20180;-78
2022/07/14 12:29:25;;;;;;;3.93;1.10;;;24.70;99.90;;;;;;5034058;28;20218;-78
2022/07/14 12:31:51;;;;;;;6.17;1.37;;;24.80;99.90;;;;;;5034225;28;20542;-77
2022/07/14 12:34:18;;;;;;;2.93;0.93;;;24.60;99.90;;;;;;5034073;28;20215;-78
2022/07/14 12:36:44;;;;;;;3.63;0.90;;;24.70;99.90;;;;;;5033573;28;20633;-78
2022/07/14 12:39:11;;;;;;;3.10;1.00;;;24.60;99.90;;;;;;5033842;28;20172;-78
2022/07/14 12:41:39;;;;;;;3.40;1.23;;;24.80;99.90;;;;;;5034072;28;20199;-79
2022/07/14 12:44:06;;;;;;;2.77;1.50;;;24.70;99.90;;;;;;5034289;28;20635;-77
2022/07/14 12:46:32;;;;;;;1.43;0.87;;;24.70;99.90;;;;;;5034460;28;20538;-79
2022/07/14 12:49:06;;;;;;;3.10;0.90;;;24.60;99.90;;;;;;5034019;28;20177;-78
2022/07/14 12:51:43;;;;;;;3.57;1.03;;;24.50;99.90;;;;;;5034020;28;20696;-78
2022/07/14 12:54:31;;;;;;;4.67;1.00;;;24.50;99.90;;;;;;5016514;28;20531;-79
2022/07/14 12:56:57;;;;;;;3.43;1.30;;;24.40;99.90;;;;;;5033944;28;20322;-76
2022/07/14 12:59:31;;;;;;;3.90;1.23;;;24.50;99.90;;;;;;5016283;28;20271;-79